Time;durP1;ratioP1;P1;durP2;ratioP2;P2;SDS_P1;SDS_P2;PMS_P1;PMS_P2;Temp;Humidity;BMP_temperature;BMP_pressure;BME280_temperature;BME280_humidity;BME280_pressure;Samples;Min_cycle;Max_cycle;Signal;HPM_P1;HPM_P2
2023/07/26 00:00:11;;;;;;;2.05;1.40;;;16.60;70.10;;;;;;5054692;28;20052;-68
2023/07/26 00:02:36;;;;;;;2.67;1.27;;;16.60;70.20;;;;;;5050538;28;20400;-69
2023/07/26 00:05:02;;;;;;;2.55;1.38;;;16.60;70.20;;;;;;5051953;28;20025;-68
2023/07/26 00:07:28;;;;;;;1.80;1.13;;;16.60;70.40;;;;;;5055647;28;20491;-69
2023/07/26 00:09:53;;;;;;;1.33;1.13;;;16.60;70.50;;;;;;5063729;28;20420;-69
2023/07/26 00:12:19;;;;;;;1.77;1.40;;;16.60;70.50;;;;;;5072278;28;20029;-68
2023/07/26 00:14:44;;;;;;;2.00;1.30;;;16.50;70.60;;;;;;5067934;28;20036;-69
2023/07/26 00:17:10;;;;;;;2.08;1.25;;;16.50;70.70;;;;;;5051645;28;20032;-68
2023/07/26 00:19:35;;;;;;;1.83;1.20;;;16.50;70.70;;;;;;5052119;28;20516;-68
2023/07/26 00:22:01;;;;;;;3.17;1.38;;;16.60;70.80;;;;;;5051981;28;20064;-68
2023/07/26 00:24:26;;;;;;;1.85;1.40;;;16.60;70.80;;;;;;5059759;28;20024;-68
2023/07/26 00:26:52;;;;;;;1.83;1.40;;;16.60;70.90;;;;;;5067117;28;20031;-69
2023/07/26 00:29:18;;;;;;;1.75;1.30;;;16.60;71.00;;;;;;5071525;28;20028;-69
2023/07/26 00:31:43;;;;;;;2.08;1.48;;;16.60;71.00;;;;;;5071260;28;20043;-68
2023/07/26 00:34:09;;;;;;;2.42;1.33;;;16.60;71.10;;;;;;5055633;28;20419;-68
2023/07/26 00:36:35;;;;;;;3.03;1.50;;;16.60;71.10;;;;;;5051595;28;20513;-68
2023/07/26 00:39:00;;;;;;;1.75;1.30;;;16.60;71.30;;;;;;5051851;28;20036;-68
2023/07/26 00:41:26;;;;;;;1.73;1.30;;;16.60;71.50;;;;;;5051316;28;20027;-68
2023/07/26 00:43:52;;;;;;;3.53;1.40;;;16.60;71.60;;;;;;5051252;28;20056;-68
2023/07/26 00:46:18;;;;;;;3.33;1.88;;;16.60;71.70;;;;;;5051300;28;20029;-69
2023/07/26 00:48:43;;;;;;;3.88;2.15;;;16.60;72.00;;;;;;5051300;28;20535;-69
2023/07/26 00:51:10;;;;;;;3.20;2.10;;;16.50;72.20;;;;;;5039169;28;20082;-68
2023/07/26 00:53:35;;;;;;;4.05;2.38;;;16.50;72.50;;;;;;5053208;28;20429;-68
2023/07/26 00:56:02;;;;;;;3.90;2.25;;;16.50;72.80;;;;;;5071382;28;20028;-68
2023/07/26 00:58:28;;;;;;;4.50;2.40;;;16.50;73.10;;;;;;5069149;28;20009;-69
2023/07/26 01:00:54;;;;;;;3.30;2.00;;;16.40;73.20;;;;;;5059379;28;20017;-68
2023/07/26 01:03:20;;;;;;;3.15;2.10;;;16.40;73.30;;;;;;5069435;28;20028;-68
2023/07/26 01:05:57;;;;;;;2.50;1.92;;;16.40;73.40;;;;;;5071024;28;20040;-68
2023/07/26 01:08:47;;;;;;;2.72;2.00;;;16.40;73.60;;;;;;5067714;28;20120;-69
2023/07/26 01:11:43;;;;;;;3.05;2.05;;;16.30;73.80;;;;;;5050609;28;20033;-68
2023/07/26 01:14:44;;;;;;;4.80;2.03;;;16.30;73.80;;;;;;5049314;28;20126;-68
2023/07/26 01:17:10;;;;;;;3.25;2.30;;;16.30;74.10;;;;;;5051807;28;20036;-68
2023/07/26 01:19:36;;;;;;;3.65;2.40;;;16.20;74.10;;;;;;5062601;28;20017;-68
2023/07/26 01:22:01;;;;;;;2.97;2.35;;;16.20;74.20;;;;;;5070747;28;20475;-68
2023/07/26 01:24:27;;;;;;;3.13;2.40;;;16.10;74.30;;;;;;5070489;28;20024;-68
2023/07/26 01:26:52;;;;;;;2.75;2.20;;;16.10;74.50;;;;;;5066758;28;20375;-68
2023/07/26 01:29:18;;;;;;;3.38;2.30;;;16.10;74.50;;;;;;5050279;28;20035;-68
2023/07/26 01:31:44;;;;;;;4.13;2.33;;;16.10;74.60;;;;;;5050567;28;20021;-69
2023/07/26 01:34:11;;;;;;;4.13;2.17;;;16.00;74.70;;;;;;5050256;28;20017;-71
2023/07/26 01:36:38;;;;;;;3.95;2.20;;;16.00;74.80;;;;;;5055039;28;20471;-68
2023/07/26 01:39:04;;;;;;;3.17;2.20;;;16.00;74.90;;;;;;5061956;28;20062;-70
2023/07/26 01:41:31;;;;;;;2.50;2.20;;;15.90;75.00;;;;;;5070057;28;20032;-69
2023/07/26 01:43:56;;;;;;;3.22;2.17;;;15.90;75.10;;;;;;5069322;28;20055;-68
2023/07/26 01:46:22;;;;;;;3.92;2.50;;;15.80;75.10;;;;;;5050110;28;20383;-69
2023/07/26 01:48:48;;;;;;;2.35;1.83;;;15.80;75.10;;;;;;5050220;28;20029;-68
2023/07/26 01:51:13;;;;;;;2.75;1.95;;;15.80;75.20;;;;;;5050303;28;20353;-68
2023/07/26 01:53:39;;;;;;;2.97;2.30;;;15.70;75.30;;;;;;5046334;28;20024;-68
2023/07/26 01:56:05;;;;;;;3.28;2.08;;;15.70;75.40;;;;;;5067177;28;20479;-68
2023/07/26 01:58:30;;;;;;;3.97;2.20;;;15.70;75.50;;;;;;5067264;28;20102;-68
2023/07/26 02:00:56;;;;;;;2.72;2.33;;;15.60;75.60;;;;;;5049888;28;20025;-68
2023/07/26 02:03:22;;;;;;;3.28;2.28;;;15.60;75.60;;;;;;5049979;28;20029;-68
2023/07/26 02:05:48;;;;;;;2.92;2.30;;;15.60;75.70;;;;;;5049557;28;20025;-68
2023/07/26 02:08:16;;;;;;;3.30;2.58;;;15.50;75.60;;;;;;5047409;28;20027;-68
2023/07/26 02:10:42;;;;;;;2.80;2.50;;;15.50;75.80;;;;;;5061262;28;20019;-68
2023/07/26 02:13:08;;;;;;;2.83;2.53;;;15.40;76.60;;;;;;5069726;28;20016;-68
2023/07/26 02:15:34;;;;;;;3.33;2.47;;;15.40;76.20;;;;;;5069300;28;20017;-68
2023/07/26 02:17:59;;;;;;;3.13;2.25;;;15.40;76.60;;;;;;5055418;28;20437;-68
2023/07/26 02:20:25;;;;;;;3.35;2.42;;;15.30;76.70;;;;;;5049644;28;20082;-69
2023/07/26 02:22:51;;;;;;;3.58;2.60;;;15.30;76.70;;;;;;5049789;28;20100;-68
2023/07/26 02:25:17;;;;;;;3.80;2.75;;;15.20;76.90;;;;;;5049748;28;20024;-68
2023/07/26 02:27:43;;;;;;;3.72;2.67;;;15.20;77.10;;;;;;5057432;28;20017;-69
2023/07/26 02:30:09;;;;;;;3.25;2.75;;;15.20;77.20;;;;;;5067157;28;20463;-68
2023/07/26 02:32:34;;;;;;;3.33;2.42;;;15.20;77.20;;;;;;5070000;28;20024;-69
2023/07/26 02:35:00;;;;;;;4.53;3.00;;;15.20;77.20;;;;;;5066419;28;20025;-68
2023/07/26 02:37:25;;;;;;;4.13;3.00;;;15.10;77.30;;;;;;5049681;28;20034;-68
2023/07/26 02:39:51;;;;;;;3.97;3.20;;;15.10;77.20;;;;;;5049660;28;20138;-68
2023/07/26 02:42:17;;;;;;;4.07;2.85;;;15.10;77.20;;;;;;5049542;28;20051;-68
2023/07/26 02:44:45;;;;;;;3.97;3.28;;;15.10;77.30;;;;;;5057290;28;20020;-68
2023/07/26 02:47:10;;;;;;;3.50;3.10;;;15.00;77.40;;;;;;5068026;28;20029;-69
2023/07/26 02:49:36;;;;;;;4.03;3.25;;;15.00;77.50;;;;;;5069727;28;20379;-68
2023/07/26 02:52:01;;;;;;;3.55;3.00;;;15.00;77.70;;;;;;5069291;28;20055;-68
2023/07/26 02:54:27;;;;;;;4.65;3.50;;;14.90;77.70;;;;;;5035668;28;20017;-69
2023/07/26 02:56:52;;;;;;;4.55;3.50;;;14.90;77.90;;;;;;5064681;28;20024;-68
2023/07/26 02:59:18;;;;;;;4.75;3.65;;;14.90;78.20;;;;;;5062979;28;20021;-68
2023/07/26 03:01:44;;;;;;;4.15;3.50;;;14.80;78.20;;;;;;5061018;28;20016;-69
2023/07/26 03:04:10;;;;;;;4.05;3.40;;;14.90;78.30;;;;;;5069511;28;20047;-68
2023/07/26 03:06:36;;;;;;;4.53;3.75;;;14.80;78.50;;;;;;5065981;28;20171;-68
2023/07/26 03:09:03;;;;;;;4.20;3.78;;;14.80;78.50;;;;;;5049146;28;20067;-68
2023/07/26 03:11:28;;;;;;;4.10;3.70;;;14.80;78.60;;;;;;5049192;28;20108;-68
2023/07/26 03:13:55;;;;;;;4.78;4.03;;;14.80;78.90;;;;;;5049098;28;20017;-68
2023/07/26 03:16:21;;;;;;;6.78;3.92;;;14.70;79.00;;;;;;5051719;28;20021;-68
2023/07/26 03:18:47;;;;;;;5.43;4.00;;;14.70;79.10;;;;;;5060751;28;20016;-68
2023/07/26 03:21:12;;;;;;;4.72;3.95;;;14.70;79.20;;;;;;5069320;28;20024;-68
2023/07/26 03:23:38;;;;;;;4.90;4.35;;;14.70;79.40;;;;;;5068000;28;20024;-68
2023/07/26 03:26:04;;;;;;;5.25;4.43;;;14.60;79.80;;;;;;5049633;28;20035;-70
2023/07/26 03:28:29;;;;;;;6.32;4.40;;;14.60;80.20;;;;;;5053242;28;20029;-69
2023/07/26 03:30:55;;;;;;;8.00;6.38;;;14.50;80.40;;;;;;5052952;28;20036;-68
2023/07/26 03:33:21;;;;;;;5.80;4.57;;;14.50;80.70;;;;;;5060814;28;20029;-68
2023/07/26 03:35:47;;;;;;;5.75;4.88;;;14.50;80.90;;;;;;5067595;28;20025;-68
2023/07/26 03:38:13;;;;;;;6.18;4.97;;;14.40;81.10;;;;;;5088279;28;20284;-68
2023/07/26 03:40:40;;;;;;;6.72;5.53;;;14.40;81.30;;;;;;5072560;28;20109;-68
2023/07/26 03:43:06;;;;;;;5.82;4.75;;;14.40;81.50;;;;;;5053609;28;20017;-68
2023/07/26 03:45:32;;;;;;;5.90;4.65;;;14.40;81.40;;;;;;5052144;28;20035;-68
2023/07/26 03:47:57;;;;;;;6.25;5.13;;;14.40;81.30;;;;;;5051361;28;20112;-68
2023/07/26 03:50:23;;;;;;;5.60;4.95;;;14.40;81.40;;;;;;5052523;28;20037;-68
2023/07/26 03:52:48;;;;;;;6.15;5.22;;;14.40;81.40;;;;;;5060384;28;20066;-68
2023/07/26 03:55:15;;;;;;;5.72;4.75;;;14.40;81.80;;;;;;5070303;28;20104;-68
2023/07/26 03:57:40;;;;;;;6.32;5.72;;;14.30;82.00;;;;;;5072361;28;20437;-68
2023/07/26 04:00:06;;;;;;;6.80;6.10;;;14.30;82.30;;;;;;5057024;28;20021;-68
2023/07/26 04:02:32;;;;;;;6.55;5.88;;;14.30;82.70;;;;;;5052190;28;20029;-69
2023/07/26 04:04:58;;;;;;;5.90;5.22;;;14.30;83.00;;;;;;5051884;28;20124;-69
2023/07/26 04:07:23;;;;;;;7.13;5.50;;;14.30;83.00;;;;;;5050683;28;20503;-68
2023/07/26 04:09:49;;;;;;;5.88;5.28;;;14.30;83.30;;;;;;5059726;28;20024;-69
2023/07/26 04:12:15;;;;;;;5.78;5.18;;;14.30;83.30;;;;;;5070503;28;20521;-68
2023/07/26 04:14:41;;;;;;;6.22;5.55;;;14.30;83.30;;;;;;5072069;28;20177;-69
2023/07/26 04:17:06;;;;;;;6.10;5.20;;;14.30;83.40;;;;;;5071811;28;20017;-68
2023/07/26 04:19:32;;;;;;;5.93;5.15;;;14.30;83.70;;;;;;5053488;28;20104;-68
2023/07/26 04:21:57;;;;;;;5.65;4.70;;;14.30;83.60;;;;;;5051923;28;20021;-68
2023/07/26 04:24:23;;;;;;;5.63;5.00;;;14.40;83.60;;;;;;5051644;28;20502;-68
2023/07/26 04:26:49;;;;;;;5.50;4.82;;;14.40;83.60;;;;;;5058065;28;20027;-68
2023/07/26 04:29:15;;;;;;;6.43;5.03;;;14.50;83.50;;;;;;5062920;28;20055;-68
2023/07/26 04:31:40;;;;;;;7.07;5.88;;;14.50;83.40;;;;;;5087077;28;20470;-69
2023/07/26 04:34:06;;;;;;;6.60;5.00;;;14.60;83.50;;;;;;5066680;28;20017;-68
2023/07/26 04:36:31;;;;;;;6.18;5.57;;;14.60;83.60;;;;;;5051635;28;20020;-68
2023/07/26 04:38:57;;;;;;;6.07;5.28;;;14.60;83.50;;;;;;5050148;28;20032;-69
2023/07/26 04:41:23;;;;;;;6.93;6.03;;;14.60;83.60;;;;;;5051508;28;20114;-69
2023/07/26 04:43:48;;;;;;;9.68;6.45;;;14.60;83.60;;;;;;5057483;28;20043;-68
2023/07/26 04:46:15;;;;;;;7.30;6.60;;;14.60;83.90;;;;;;5062723;28;20028;-68
2023/07/26 04:48:41;;;;;;;7.22;6.10;;;14.60;84.10;;;;;;5053329;28;20076;-68
2023/07/26 04:51:06;;;;;;;7.88;6.72;;;14.60;84.40;;;;;;5059908;28;20099;-69
2023/07/26 04:53:32;;;;;;;8.13;5.63;;;14.60;84.40;;;;;;5051035;28;20031;-68
2023/07/26 04:55:57;;;;;;;6.47;5.45;;;14.60;84.60;;;;;;5051180;28;20021;-68
2023/07/26 04:58:23;;;;;;;6.82;4.80;;;14.60;84.40;;;;;;5050779;28;20049;-68
2023/07/26 05:00:50;;;;;;;6.63;5.93;;;14.70;84.20;;;;;;5059402;28;20021;-68
2023/07/26 05:03:15;;;;;;;7.05;5.53;;;14.70;84.10;;;;;;5069630;28;20025;-68
2023/07/26 05:05:41;;;;;;;6.03;5.43;;;14.80;84.30;;;;;;5070818;28;20039;-68
2023/07/26 05:08:08;;;;;;;6.95;5.63;;;14.80;84.40;;;;;;5057242;28;20052;-68
2023/07/26 05:10:34;;;;;;;6.40;5.40;;;14.80;84.20;;;;;;5050591;28;20116;-68
2023/07/26 05:13:00;;;;;;;6.78;5.93;;;14.90;84.20;;;;;;5050628;28;20084;-68
2023/07/26 05:15:25;;;;;;;6.18;5.40;;;14.90;84.50;;;;;;5049481;28;20057;-68
2023/07/26 05:17:52;;;;;;;6.30;5.00;;;15.60;84.00;;;;;;5058432;28;20013;-68
2023/07/26 05:20:18;;;;;;;6.13;4.55;;;16.60;81.60;;;;;;5069694;28;20020;-68
2023/07/26 05:22:43;;;;;;;5.97;4.80;;;17.50;78.40;;;;;;5070679;28;20035;-68
2023/07/26 05:25:09;;;;;;;5.57;4.88;;;18.20;75.60;;;;;;5069446;28;20025;-68
2023/07/26 05:27:35;;;;;;;8.65;5.45;;;18.80;72.80;;;;;;5050397;28;20029;-68
2023/07/26 05:30:01;;;;;;;7.03;5.68;;;18.90;71.10;;;;;;5050674;28;20041;-69
2023/07/26 05:32:27;;;;;;;6.70;6.00;;;18.70;70.90;;;;;;5050621;28;20013;-69
2023/07/26 05:34:56;;;;;;;6.15;5.55;;;18.10;71.20;;;;;;5048793;28;20447;-68
2023/07/26 05:37:22;;;;;;;5.35;4.60;;;17.60;72.70;;;;;;5061551;28;20323;-68
2023/07/26 05:39:49;;;;;;;7.22;5.28;;;17.30;73.90;;;;;;5070228;28;20071;-68
2023/07/26 05:42:14;;;;;;;6.20;4.82;;;17.00;74.90;;;;;;5052474;28;20028;-68
2023/07/26 05:44:40;;;;;;;5.40;4.50;;;16.80;76.10;;;;;;5078945;28;20397;-69
2023/07/26 05:47:06;;;;;;;5.18;3.90;;;16.60;76.80;;;;;;5050066;28;20076;-68
2023/07/26 05:49:31;;;;;;;6.57;4.72;;;16.60;77.30;;;;;;5050125;28;20073;-68
2023/07/26 05:51:57;;;;;;;6.47;5.05;;;16.40;77.60;;;;;;5050403;28;20090;-68
2023/07/26 05:54:23;;;;;;;6.32;4.57;;;16.30;78.20;;;;;;5058308;28;20017;-68
2023/07/26 05:56:49;;;;;;;5.00;4.50;;;16.30;78.50;;;;;;5065081;28;20436;-68
2023/07/26 05:59:14;;;;;;;5.93;4.78;;;16.30;78.50;;;;;;5062537;28;20018;-68
2023/07/26 06:01:40;;;;;;;6.35;5.05;;;16.50;78.60;;;;;;5049917;28;20032;-68
2023/07/26 06:04:05;;;;;;;5.57;4.45;;;16.70;77.70;;;;;;5050051;28;20488;-69
2023/07/26 06:06:31;;;;;;;6.72;4.90;;;17.10;77.40;;;;;;5049836;28;20029;-68
2023/07/26 06:08:57;;;;;;;6.78;4.68;;;18.20;75.00;;;;;;5065623;28;20028;-68
2023/07/26 06:11:23;;;;;;;5.18;4.53;;;18.90;71.90;;;;;;5050184;28;20023;-69
2023/07/26 06:13:49;;;;;;;5.43;4.47;;;19.00;71.10;;;;;;5049733;28;20021;-69
2023/07/26 06:16:15;;;;;;;6.63;5.30;;;19.20;70.40;;;;;;5049544;28;20017;-69
2023/07/26 06:18:40;;;;;;;5.80;5.20;;;19.00;69.80;;;;;;5048353;28;20013;-69
2023/07/26 06:21:06;;;;;;;5.05;4.50;;;19.00;70.20;;;;;;5049854;28;20438;-69
2023/07/26 06:23:31;;;;;;;8.25;5.63;;;18.80;70.60;;;;;;5049550;28;20391;-68
2023/07/26 06:25:57;;;;;;;5.05;4.38;;;18.70;71.70;;;;;;5049109;28;20029;-68
2023/07/26 06:28:23;;;;;;;6.35;5.50;;;18.90;70.90;;;;;;5058081;28;20027;-68
2023/07/26 06:30:49;;;;;;;6.88;5.20;;;18.80;70.90;;;;;;5049814;28;20381;-69
2023/07/26 06:33:14;;;;;;;6.00;4.72;;;18.80;71.40;;;;;;5049598;28;20025;-69
2023/07/26 06:35:40;;;;;;;5.35;4.85;;;18.60;71.80;;;;;;5049333;28;20502;-68
2023/07/26 06:38:05;;;;;;;6.32;4.90;;;18.40;72.40;;;;;;5049722;28;20025;-69
2023/07/26 06:40:31;;;;;;;6.70;5.00;;;18.20;72.90;;;;;;5049455;28;20028;-69
2023/07/26 06:42:57;;;;;;;6.15;4.60;;;18.10;73.50;;;;;;5049206;28;20104;-69
2023/07/26 06:45:22;;;;;;;5.47;4.25;;;18.00;74.00;;;;;;5049548;28;20025;-69
2023/07/26 06:47:48;;;;;;;5.38;4.32;;;18.00;74.50;;;;;;5049516;28;20077;-69
2023/07/26 06:50:13;;;;;;;4.97;4.47;;;17.90;74.70;;;;;;5049380;28;20029;-68
2023/07/26 06:52:39;;;;;;;5.57;4.63;;;17.90;75.10;;;;;;5054388;28;20484;-68
2023/07/26 06:55:05;;;;;;;6.50;5.13;;;17.80;75.50;;;;;;5061173;28;20023;-69
2023/07/26 06:57:31;;;;;;;5.95;5.07;;;17.80;75.80;;;;;;5069446;28;20025;-69
2023/07/26 06:59:56;;;;;;;7.57;5.05;;;17.80;76.20;;;;;;5042019;28;20499;-68
2023/07/26 07:02:22;;;;;;;7.00;5.63;;;17.70;76.50;;;;;;5052142;28;20052;-68
2023/07/26 07:04:48;;;;;;;9.75;6.63;;;17.60;76.90;;;;;;5053250;28;20028;-69
2023/07/26 07:07:13;;;;;;;7.72;5.85;;;17.60;77.40;;;;;;5054722;28;20098;-68
2023/07/26 07:09:39;;;;;;;7.85;5.53;;;17.50;77.60;;;;;;5064805;28;20013;-68
2023/07/26 07:12:07;;;;;;;9.40;5.75;;;17.50;77.80;;;;;;5073251;28;20099;-68
2023/07/26 07:14:33;;;;;;;6.85;5.40;;;17.50;78.10;;;;;;5053548;28;20467;-68
2023/07/26 07:17:00;;;;;;;7.57;5.50;;;17.50;78.20;;;;;;5047235;28;20401;-68
2023/07/26 07:19:26;;;;;;;6.45;5.38;;;17.50;78.30;;;;;;5044399;28;20029;-69
2023/07/26 07:21:51;;;;;;;6.38;4.93;;;17.50;78.30;;;;;;5033682;28;20029;-69
2023/07/26 07:24:17;;;;;;;6.78;4.80;;;17.50;78.70;;;;;;5047379;28;20348;-68
2023/07/26 07:26:42;;;;;;;7.25;5.65;;;17.40;79.10;;;;;;5049527;28;20096;-69
2023/07/26 07:29:08;;;;;;;7.45;4.95;;;17.40;79.50;;;;;;5041241;28;20095;-68
2023/07/26 07:31:34;;;;;;;7.75;5.28;;;17.30;79.80;;;;;;5042894;28;20533;-69
2023/07/26 07:33:59;;;;;;;8.77;5.35;;;17.20;80.50;;;;;;5045942;28;20025;-68
2023/07/26 07:36:25;;;;;;;6.68;5.20;;;17.00;81.30;;;;;;5047146;28;20058;-69
2023/07/26 07:38:50;;;;;;;7.60;6.30;;;16.90;81.90;;;;;;5041401;28;20092;-69
2023/07/26 07:41:16;;;;;;;5.70;4.10;;;16.70;82.80;;;;;;5042485;28;20468;-69
2023/07/26 07:43:42;;;;;;;5.13;3.60;;;16.60;83.00;;;;;;5034415;28;20021;-69
2023/07/26 07:46:07;;;;;;;3.40;2.65;;;16.40;83.10;;;;;;5044816;28;20025;-68
2023/07/26 07:48:34;;;;;;;3.72;2.53;;;16.20;83.30;;;;;;5047325;28;20033;-68
2023/07/26 07:51:00;;;;;;;4.55;2.22;;;16.00;83.50;;;;;;5049003;28;20064;-68
2023/07/26 07:53:25;;;;;;;2.92;2.35;;;15.80;83.60;;;;;;5048367;28;20024;-68
2023/07/26 07:55:51;;;;;;;3.60;2.58;;;15.70;83.80;;;;;;5044456;28;20045;-68
2023/07/26 07:58:17;;;;;;;3.97;2.53;;;15.60;84.10;;;;;;5040854;28;20431;-68
2023/07/26 08:00:43;;;;;;;4.15;2.88;;;15.60;84.30;;;;;;5050819;28;20107;-67
2023/07/26 08:03:08;;;;;;;3.25;2.13;;;15.50;84.50;;;;;;5044795;28;20043;-68
2023/07/26 08:05:35;;;;;;;2.65;1.90;;;15.40;84.60;;;;;;5041392;28;20480;-68
2023/07/26 08:08:00;;;;;;;2.55;1.70;;;15.30;84.70;;;;;;5045128;28;20028;-68
2023/07/26 08:10:26;;;;;;;3.30;2.10;;;15.40;84.70;;;;;;5047741;28;20041;-68
2023/07/26 08:12:52;;;;;;;2.53;2.00;;;15.40;84.60;;;;;;5033039;28;20052;-68
2023/07/26 08:15:17;;;;;;;2.67;1.67;;;15.40;84.50;;;;;;5041228;28;20022;-68
2023/07/26 08:17:43;;;;;;;1.73;1.52;;;15.50;84.60;;;;;;5050471;28;20013;-68
2023/07/26 08:20:09;;;;;;;1.60;1.50;;;15.60;84.60;;;;;;5044583;28;20082;-68
2023/07/26 08:22:35;;;;;;;1.85;1.42;;;15.80;84.50;;;;;;5041287;28;20380;-68
2023/07/26 08:25:01;;;;;;;2.20;1.50;;;16.10;84.10;;;;;;5044998;28;20021;-68
2023/07/26 08:27:26;;;;;;;1.63;1.25;;;16.30;83.50;;;;;;5046371;28;20029;-68
2023/07/26 08:29:52;;;;;;;1.70;1.27;;;16.60;83.10;;;;;;5040689;28;20553;-68
2023/07/26 08:32:18;;;;;;;2.20;1.33;;;16.90;82.90;;;;;;5041278;28;20021;-68
2023/07/26 08:34:43;;;;;;;1.63;1.30;;;17.20;82.40;;;;;;5047327;28;20021;-68
2023/07/26 08:37:09;;;;;;;1.15;1.05;;;17.50;81.70;;;;;;5032914;28;20413;-68
2023/07/26 08:39:35;;;;;;;1.35;1.25;;;17.70;80.50;;;;;;5047107;28;20520;-68
2023/07/26 08:42:01;;;;;;;1.40;1.13;;;17.80;79.70;;;;;;5044727;28;20024;-67
2023/07/26 08:44:28;;;;;;;1.10;1.00;;;18.00;79.30;;;;;;5047794;28;20071;-68
2023/07/26 08:46:54;;;;;;;1.50;1.38;;;18.20;79.10;;;;;;5043696;28;20017;-68
2023/07/26 08:49:20;;;;;;;1.52;1.30;;;18.40;78.70;;;;;;5041091;28;20029;-68
2023/07/26 08:51:47;;;;;;;1.40;1.30;;;18.60;78.40;;;;;;5043295;28;20028;-68
2023/07/26 08:54:14;;;;;;;1.60;1.30;;;18.70;78.00;;;;;;5046625;28;20079;-68
2023/07/26 08:56:40;;;;;;;1.42;1.33;;;18.70;77.30;;;;;;5042770;28;20484;-67
2023/07/26 08:59:06;;;;;;;1.55;1.30;;;18.80;77.00;;;;;;5042559;28;20047;-68
2023/07/26 09:01:33;;;;;;;1.52;1.30;;;18.80;76.90;;;;;;5046705;28;20013;-68
2023/07/26 09:03:59;;;;;;;1.85;1.40;;;18.90;77.30;;;;;;5043737;28;20025;-69
2023/07/26 09:06:24;;;;;;;2.10;1.80;;;19.10;77.10;;;;;;5050026;28;20025;-68
2023/07/26 09:08:51;;;;;;;3.88;1.90;;;19.00;75.90;;;;;;5051937;28;20057;-68
2023/07/26 09:11:25;;;;;;;1.92;1.70;;;18.90;76.20;;;;;;5042989;28;20063;-68
2023/07/26 09:13:58;;;;;;;1.48;1.38;;;19.00;76.50;;;;;;5050429;28;20499;-68
2023/07/26 09:16:28;;;;;;;2.05;1.85;;;19.20;76.80;;;;;;5050003;28;20107;-68
2023/07/26 09:19:13;;;;;;;2.55;1.80;;;19.40;76.90;;;;;;5050696;28;20060;-68
2023/07/26 09:21:38;;;;;;;2.80;2.33;;;19.60;76.50;;;;;;5050509;28;20035;-68
2023/07/26 09:24:04;;;;;;;3.58;2.30;;;19.70;75.40;;;;;;5049916;28;20100;-68
2023/07/26 09:26:38;;;;;;;2.60;2.40;;;19.70;74.90;;;;;;5058259;28;20025;-68
2023/07/26 09:29:10;;;;;;;3.40;2.38;;;19.80;74.40;;;;;;5067545;28;20047;-69
2023/07/26 09:31:36;;;;;;;3.20;2.50;;;19.80;73.90;;;;;;5052387;28;20115;-68
2023/07/26 09:34:04;;;;;;;5.70;3.30;;;19.80;74.20;;;;;;5059975;28;20427;-68
2023/07/26 09:36:49;;;;;;;3.83;2.72;;;19.80;73.40;;;;;;5050552;28;20029;-68
2023/07/26 09:39:16;;;;;;;3.63;2.65;;;20.00;73.90;;;;;;5050578;28;20100;-68
2023/07/26 09:41:45;;;;;;;3.35;2.85;;;20.10;73.40;;;;;;5049863;28;20111;-69
2023/07/26 09:44:15;;;;;;;3.53;3.03;;;20.20;73.20;;;;;;5059552;28;20075;-69
2023/07/26 09:46:56;;;;;;;4.32;3.35;;;20.40;73.00;;;;;;5061987;28;20103;-69
2023/07/26 09:49:27;;;;;;;4.50;3.20;;;20.50;73.10;;;;;;5048323;28;20039;-68
2023/07/26 09:51:54;;;;;;;5.30;3.90;;;20.80;72.70;;;;;;5050970;28;20067;-68
2023/07/26 09:54:31;;;;;;;6.18;3.65;;;20.90;72.00;;;;;;5051164;28;20210;-69
2023/07/26 09:56:57;;;;;;;5.03;3.70;;;20.90;72.10;;;;;;5049869;28;20013;-68
2023/07/26 09:59:25;;;;;;;5.00;3.53;;;21.00;71.30;;;;;;5047016;28;20048;-69
2023/07/26 10:01:53;;;;;;;5.68;3.38;;;21.10;70.90;;;;;;5048433;28;20024;-69
2023/07/26 10:04:32;;;;;;;5.13;3.28;;;21.30;70.50;;;;;;5038345;28;20029;-69
2023/07/26 10:07:01;;;;;;;6.68;3.50;;;21.40;69.80;;;;;;5038814;28;20036;-69
2023/07/26 10:09:30;;;;;;;6.10;3.22;;;21.30;69.40;;;;;;5043359;28;20032;-69
2023/07/26 10:11:57;;;;;;;5.15;3.35;;;21.50;69.60;;;;;;5052387;28;20013;-68
2023/07/26 10:14:25;;;;;;;5.57;3.40;;;21.70;69.40;;;;;;5040405;28;20499;-68
2023/07/26 10:16:52;;;;;;;4.13;3.08;;;21.90;68.60;;;;;;5039611;28;20107;-69
2023/07/26 10:19:20;;;;;;;5.43;3.50;;;21.80;67.90;;;;;;5045935;28;20364;-69
2023/07/26 10:21:47;;;;;;;4.70;3.30;;;21.80;67.50;;;;;;5044614;28;20071;-69
2023/07/26 10:24:14;;;;;;;5.47;3.60;;;21.70;67.70;;;;;;5030302;28;20116;-69
2023/07/26 10:26:42;;;;;;;5.70;3.72;;;21.60;67.70;;;;;;5039693;28;20017;-69
2023/07/26 10:29:08;;;;;;;5.00;3.80;;;21.40;68.40;;;;;;5045931;28;20024;-69
2023/07/26 10:31:34;;;;;;;4.80;3.40;;;21.10;68.60;;;;;;5047885;28;20062;-69
2023/07/26 10:34:00;;;;;;;4.68;3.40;;;20.70;69.60;;;;;;5049208;28;20582;-68
2023/07/26 10:36:33;;;;;;;5.35;3.00;;;20.30;70.60;;;;;;5052529;28;20041;-69
2023/07/26 10:39:07;;;;;;;4.32;2.80;;;20.00;71.60;;;;;;5047515;28;20028;-68
2023/07/26 10:41:34;;;;;;;4.10;2.75;;;19.80;72.50;;;;;;5050427;28;20409;-69
2023/07/26 10:44:06;;;;;;;5.47;2.90;;;19.60;73.60;;;;;;5054302;28;20032;-69
2023/07/26 10:46:50;;;;;;;5.03;3.45;;;19.40;74.20;;;;;;5046306;28;20021;-69
2023/07/26 10:49:26;;;;;;;4.20;2.75;;;19.30;74.80;;;;;;5054165;28;20025;-69
2023/07/26 10:51:58;;;;;;;4.15;2.80;;;19.20;75.20;;;;;;5056097;28;20060;-69
2023/07/26 10:54:34;;;;;;;3.53;2.67;;;19.30;75.60;;;;;;5049302;28;20492;-69
2023/07/26 10:57:20;;;;;;;3.70;2.50;;;19.40;76.00;;;;;;5048506;28;20047;-69
2023/07/26 10:59:58;;;;;;;4.28;2.80;;;19.60;76.20;;;;;;5053788;28;20036;-69
2023/07/26 11:02:44;;;;;;;4.20;2.65;;;19.80;75.60;;;;;;5054193;28;20025;-69
2023/07/26 11:05:16;;;;;;;4.82;3.00;;;20.00;75.70;;;;;;5051257;28;20598;-69
2023/07/26 11:08:07;;;;;;;4.40;2.70;;;20.20;75.10;;;;;;5052161;28;20520;-69
2023/07/26 11:10:37;;;;;;;5.15;3.35;;;20.40;74.50;;;;;;5051510;28;20385;-69
2023/07/26 11:13:14;;;;;;;4.88;3.10;;;20.70;74.10;;;;;;5051316;28;20024;-69
2023/07/26 11:15:52;;;;;;;4.53;3.00;;;20.80;73.20;;;;;;5050973;28;20078;-69
2023/07/26 11:18:19;;;;;;;4.03;2.97;;;21.10;72.40;;;;;;5049087;28;20040;-69
2023/07/26 11:20:48;;;;;;;4.90;3.08;;;21.20;71.50;;;;;;5051885;28;20028;-68
2023/07/26 11:23:18;;;;;;;5.53;3.60;;;21.30;71.40;;;;;;5054494;28;20021;-68
2023/07/26 11:25:48;;;;;;;3.47;2.70;;;21.30;70.40;;;;;;5051206;28;20074;-69
2023/07/26 11:28:15;;;;;;;4.85;2.50;;;21.30;70.20;;;;;;5048542;28;20025;-69
2023/07/26 11:30:54;;;;;;;4.30;2.80;;;21.30;70.40;;;;;;5055256;28;20148;-69
2023/07/26 11:33:33;;;;;;;5.03;3.10;;;21.50;69.80;;;;;;5050474;28;20024;-69
2023/07/26 11:36:01;;;;;;;4.15;2.60;;;21.70;69.40;;;;;;5050945;28;20021;-69
2023/07/26 11:38:27;;;;;;;4.50;3.05;;;21.90;69.20;;;;;;5032174;28;20670;-69
2023/07/26 11:40:57;;;;;;;3.17;2.45;;;21.90;68.10;;;;;;5034560;28;20021;-69
2023/07/26 11:43:27;;;;;;;4.35;2.83;;;21.80;67.50;;;;;;5051438;28;20412;-69
2023/07/26 11:45:54;;;;;;;2.92;2.28;;;21.70;67.80;;;;;;5052817;28;20458;-68
2023/07/26 11:48:20;;;;;;;4.45;2.88;;;21.60;68.60;;;;;;5055276;28;20025;-69
2023/07/26 11:50:46;;;;;;;3.30;2.40;;;21.70;69.40;;;;;;5052017;28;20048;-69
2023/07/26 11:53:14;;;;;;;3.85;2.50;;;21.90;69.40;;;;;;5053641;28;20099;-69
2023/07/26 11:55:42;;;;;;;4.65;2.80;;;22.00;68.20;;;;;;5033064;28;20534;-69
2023/07/26 11:58:11;;;;;;;3.00;2.20;;;22.10;66.70;;;;;;5051010;28;20025;-69
2023/07/26 12:00:43;;;;;;;2.17;1.77;;;22.20;66.20;;;;;;5054117;28;20029;-68
2023/07/26 12:03:10;;;;;;;3.72;1.88;;;22.40;64.80;;;;;;5049892;28;20035;-68
2023/07/26 12:05:39;;;;;;;3.05;2.22;;;22.60;64.20;;;;;;5050443;28;20021;-69
2023/07/26 12:08:05;;;;;;;3.28;1.95;;;22.60;63.60;;;;;;5051467;28;20021;-68
2023/07/26 12:10:34;;;;;;;3.05;2.00;;;22.50;63.00;;;;;;5053033;28;20163;-68
2023/07/26 12:13:00;;;;;;;2.80;1.85;;;22.40;62.40;;;;;;5052045;28;20021;-69
2023/07/26 12:15:27;;;;;;;2.65;1.88;;;22.20;62.60;;;;;;5051815;28;20079;-69
2023/07/26 12:17:55;;;;;;;4.55;1.98;;;22.10;62.50;;;;;;5054207;28;20021;-69
2023/07/26 12:20:22;;;;;;;3.70;2.10;;;21.90;62.70;;;;;;5051928;28;20021;-69
2023/07/26 12:22:58;;;;;;;2.78;1.83;;;21.70;63.10;;;;;;5051037;28;20033;-69
2023/07/26 12:25:37;;;;;;;3.55;2.13;;;21.70;63.60;;;;;;5050257;28;20383;-69
2023/07/26 12:28:07;;;;;;;3.17;1.88;;;21.70;63.40;;;;;;5048503;28;20040;-69
2023/07/26 12:30:32;;;;;;;2.17;1.83;;;21.90;63.60;;;;;;5048769;28;20105;-69
2023/07/26 12:33:12;;;;;;;3.00;1.90;;;22.00;63.40;;;;;;5052169;28;20085;-69
2023/07/26 12:35:38;;;;;;;3.10;2.13;;;22.20;62.30;;;;;;5048997;28;20017;-69
2023/07/26 12:38:09;;;;;;;2.78;2.10;;;22.40;61.50;;;;;;5049955;28;20028;-69
2023/07/26 12:40:35;;;;;;;3.45;2.00;;;22.60;60.20;;;;;;5052057;28;20480;-69
2023/07/26 12:43:17;;;;;;;2.10;1.80;;;22.80;59.70;;;;;;5051176;28;20036;-69
2023/07/26 12:45:43;;;;;;;2.80;1.80;;;23.00;59.10;;;;;;5033496;28;20498;-69
2023/07/26 12:48:09;;;;;;;2.50;1.90;;;23.20;58.30;;;;;;5048894;28;20041;-69